createdAt,value
2023-05-01T00:00:47.012Z,51.10
2023-05-01T00:05:50.665Z,51.64
2023-05-01T00:10:53.959Z,52.37
2023-05-01T00:15:57.336Z,52.61
2023-05-01T00:21:00.472Z,53.31
2023-05-01T00:26:03.707Z,53.87
2023-05-01T00:31:06.715Z,53.89
2023-05-01T00:36:10.155Z,53.93
2023-05-01T00:41:13.303Z,53.56
2023-05-01T00:46:19.227Z,53.59
2023-05-01T00:51:22.596Z,53.89
2023-05-01T00:56:26.460Z,54.48
2023-05-01T01:01:31.955Z,54.39
2023-05-01T01:06:58.375Z,54.92
2023-05-01T01:12:13.423Z,54.85
2023-05-01T01:18:06.461Z,55.06
2023-05-01T01:23:48.798Z,55.52
2023-05-01T01:29:15.229Z,55.83
2023-05-01T01:34:27.848Z,55.59
2023-05-01T01:40:11.487Z,55.80
2023-05-01T01:45:36.758Z,56.79
2023-05-01T01:50:42.485Z,57.03
2023-05-01T01:55:48.263Z,56.98
2023-05-01T02:00:51.501Z,57.20
2023-05-01T02:05:58.712Z,57.04
2023-05-01T02:11:03.038Z,57.16
2023-05-01T02:16:07.588Z,57.36
2023-05-01T02:21:12.526Z,57.50
2023-05-01T02:26:18.294Z,57.75
2023-05-01T02:31:23.329Z,58.01
2023-05-01T02:36:27.692Z,57.95
2023-05-01T02:41:32.476Z,58.01
2023-05-01T02:46:38.037Z,57.94
2023-05-01T02:51:41.508Z,58.15
2023-05-01T02:56:44.616Z,58.52
2023-05-01T03:01:48.116Z,58.69
2023-05-01T03:06:52.389Z,58.66
2023-05-01T03:11:55.618Z,58.53
2023-05-01T03:16:58.629Z,58.60
2023-05-01T03:22:01.569Z,58.73
2023-05-01T03:27:05.656Z,58.42
2023-05-01T03:32:08.627Z,58.56
2023-05-01T03:37:12.194Z,58.41
2023-05-01T03:42:15.164Z,58.72
2023-05-01T03:47:19.336Z,59.33
2023-05-01T03:52:22.351Z,59.34
2023-05-01T03:57:25.313Z,58.11
2023-05-01T04:02:28.417Z,57.13
2023-05-01T04:07:31.590Z,56.71
2023-05-01T04:12:34.562Z,56.19
2023-05-01T04:17:37.693Z,54.80
2023-05-01T04:22:40.682Z,54.51
2023-05-01T04:27:43.747Z,53.65
2023-05-01T04:32:46.719Z,53.87
2023-05-01T04:37:49.699Z,53.86
2023-05-01T04:42:52.720Z,52.90
2023-05-01T04:47:56.291Z,51.29
2023-05-01T04:52:59.692Z,49.31
2023-05-01T04:58:04.836Z,48.11
2023-05-01T05:03:08.162Z,47.13
2023-05-01T05:08:11.136Z,45.23
2023-05-01T05:13:14.131Z,44.22
2023-05-01T05:18:17.176Z,43.92
2023-05-01T05:23:20.198Z,43.71
2023-05-01T05:28:23.998Z,43.83
2023-05-01T05:33:27.317Z,43.59
2023-05-01T05:38:30.301Z,43.40
2023-05-01T05:43:33.310Z,42.91
2023-05-01T05:48:36.286Z,42.43
2023-05-01T05:53:39.242Z,42.20
2023-05-01T05:58:42.262Z,42.32
2023-05-01T06:03:45.357Z,42.53
2023-05-01T06:08:48.396Z,42.68
2023-05-01T06:13:51.393Z,42.59
2023-05-01T06:18:54.436Z,42.86
2023-05-01T06:23:57.423Z,43.43
2023-05-01T06:29:00.417Z,42.60
2023-05-01T06:34:03.359Z,43.08
2023-05-01T06:39:06.768Z,42.69
2023-05-01T06:44:09.740Z,42.49
2023-05-01T06:49:12.676Z,42.02
2023-05-01T06:54:15.714Z,42.00
2023-05-01T06:59:18.821Z,42.56
2023-05-01T07:04:21.806Z,43.86
2023-05-01T07:09:24.846Z,43.16
2023-05-01T07:14:27.833Z,43.55
2023-05-01T07:19:30.883Z,43.08
2023-05-01T07:24:33.856Z,43.34
2023-05-01T07:29:38.938Z,43.34
2023-05-01T07:34:41.902Z,44.10
2023-05-01T07:39:45.371Z,44.09
2023-05-01T07:44:50.884Z,44.06
2023-05-01T07:49:54.023Z,43.81
2023-05-01T07:54:57.029Z,44.51
2023-05-01T08:00:00.048Z,44.14
2023-05-01T08:05:04.186Z,44.50
2023-05-01T08:10:07.914Z,44.79
2023-05-01T08:15:10.947Z,44.53
2023-05-01T08:20:13.926Z,44.04
2023-05-01T08:25:17.032Z,43.53
2023-05-01T08:30:20.043Z,42.75
2023-05-01T08:35:23.041Z,43.53
2023-05-01T08:40:27.030Z,42.36
2023-05-01T08:45:36.022Z,41.04
2023-05-01T08:50:41.155Z,41.62
2023-05-01T08:55:48.719Z,41.74
2023-05-01T09:00:53.170Z,42.67
2023-05-01T09:05:56.630Z,42.01
2023-05-01T09:11:00.941Z,40.84
2023-05-01T09:16:06.745Z,41.15
2023-05-01T09:21:10.508Z,41.45
2023-05-01T09:26:13.457Z,41.52
2023-05-01T09:31:30.452Z,39.13
2023-05-01T09:36:34.676Z,39.64
2023-05-01T09:41:51.200Z,39.47
2023-05-01T09:46:54.524Z,38.14
2023-05-01T09:52:11.992Z,40.55
2023-05-01T09:57:14.984Z,40.20
2023-05-01T10:02:32.049Z,38.82
2023-05-01T10:07:35.102Z,39.59
2023-05-01T10:12:38.130Z,39.32
2023-05-01T10:17:43.499Z,38.53
2023-05-01T10:22:46.786Z,38.80
2023-05-01T10:27:51.334Z,39.03
2023-05-01T10:32:54.763Z,38.39
2023-05-01T10:38:21.754Z,38.58
2023-05-01T10:43:30.536Z,37.25
2023-05-01T10:48:45.152Z,37.35
2023-05-01T10:54:11.556Z,37.37
2023-05-01T10:59:17.874Z,36.72
2023-05-01T11:04:24.782Z,38.45
2023-05-01T11:09:44.693Z,36.81
2023-05-01T11:14:54.246Z,35.94
2023-05-01T11:20:00.456Z,36.54
2023-05-01T11:25:17.432Z,37.39
2023-05-01T11:30:21.164Z,37.27
2023-05-01T11:35:27.423Z,38.11
2023-05-01T11:40:32.994Z,38.92
2023-05-01T11:45:37.568Z,39.34
2023-05-01T11:50:40.897Z,36.26
2023-05-01T11:55:44.631Z,37.17
2023-05-01T12:00:50.796Z,36.05
2023-05-01T12:05:54.094Z,37.00
2023-05-01T12:10:57.711Z,37.77
2023-05-01T12:16:01.014Z,36.82
2023-05-01T12:21:04.034Z,37.32
2023-05-01T12:26:23.788Z,36.93
2023-05-01T12:31:27.967Z,35.65
2023-05-01T12:36:33.707Z,36.78
2023-05-01T12:41:50.028Z,36.13
2023-05-01T12:47:06.699Z,37.27
2023-05-01T12:52:09.937Z,35.36
2023-05-01T12:57:15.590Z,35.49
2023-05-01T13:02:18.921Z,35.42
2023-05-01T13:07:22.065Z,34.80
2023-05-01T13:12:26.793Z,36.88
2023-05-01T13:17:33.636Z,35.26
2023-05-01T13:22:39.280Z,36.99
2023-05-01T13:27:47.455Z,37.08
2023-05-01T13:32:50.485Z,36.60
2023-05-01T13:37:54.492Z,35.69
2023-05-01T13:42:57.481Z,36.53
2023-05-01T13:48:03.094Z,36.11
2023-05-01T13:53:06.963Z,35.78
2023-05-01T13:58:09.984Z,35.71
2023-05-01T14:03:15.878Z,34.96
2023-05-01T14:08:28.365Z,35.30
2023-05-01T14:13:31.348Z,35.12
2023-05-01T14:18:35.321Z,33.93
2023-05-01T14:23:42.189Z,34.14
2023-05-01T14:28:48.171Z,34.18
2023-05-01T14:34:15.610Z,34.88
2023-05-01T14:39:18.823Z,34.68
2023-05-01T14:44:24.247Z,34.47
2023-05-01T14:49:29.733Z,33.38
2023-05-01T14:54:46.040Z,34.78
2023-05-01T14:59:49.795Z,34.85
2023-05-01T15:04:52.777Z,34.34
2023-05-01T15:09:55.775Z,33.92
2023-05-01T15:14:59.124Z,33.85
2023-05-01T15:20:02.312Z,33.50
2023-05-01T15:25:05.728Z,33.27
2023-05-01T15:30:10.332Z,34.05
2023-05-01T15:35:13.613Z,34.44
2023-05-01T15:40:16.949Z,34.48
2023-05-01T15:45:20.622Z,33.82
2023-05-01T15:50:27.436Z,33.42
2023-05-01T15:55:30.428Z,34.72
2023-05-01T16:00:35.844Z,33.90
2023-05-01T16:05:39.162Z,34.99
2023-05-01T16:10:42.096Z,34.31
2023-05-01T16:15:44.991Z,34.88
2023-05-01T16:20:47.932Z,35.54
2023-05-01T16:25:51.033Z,36.43
2023-05-01T16:30:55.805Z,35.74
2023-05-01T16:35:59.900Z,36.34
2023-05-01T16:41:04.210Z,37.32
2023-05-01T16:46:07.030Z,37.11
2023-05-01T16:51:11.968Z,37.41
2023-05-01T16:56:15.418Z,37.66
2023-05-01T17:01:18.449Z,38.30
2023-05-01T17:06:21.705Z,39.13
2023-05-01T17:11:24.775Z,39.48
2023-05-01T17:16:27.929Z,40.37
2023-05-01T17:21:32.413Z,40.92
2023-05-01T17:26:35.387Z,42.18
2023-05-01T17:31:38.483Z,42.89
2023-05-01T17:36:41.529Z,42.63
2023-05-01T17:41:44.564Z,43.41
2023-05-01T17:46:47.493Z,43.78
2023-05-01T17:51:50.451Z,44.64
2023-05-01T17:56:53.403Z,44.36
2023-05-01T18:01:57.133Z,44.41
2023-05-01T18:07:00.748Z,44.75
2023-05-01T18:12:03.961Z,45.71
2023-05-01T18:17:07.134Z,45.60
2023-05-01T18:22:10.614Z,45.78
2023-05-01T18:27:13.719Z,46.65
2023-05-01T18:32:16.686Z,46.93
2023-05-01T18:37:19.649Z,47.01
2023-05-01T18:42:22.555Z,48.08
2023-05-01T18:47:27.669Z,48.84
2023-05-01T18:52:31.350Z,48.30
2023-05-01T18:57:35.551Z,48.66
2023-05-01T19:02:42.700Z,48.83
2023-05-01T19:07:45.860Z,49.24
2023-05-01T19:12:49.469Z,49.31
2023-05-01T19:17:52.473Z,49.43
2023-05-01T19:22:55.567Z,49.71
2023-05-01T19:27:58.510Z,50.21
2023-05-01T19:33:01.488Z,50.37
2023-05-01T19:38:04.505Z,50.56
2023-05-01T19:43:07.466Z,50.68
2023-05-01T19:48:10.760Z,50.84
2023-05-01T19:53:13.744Z,51.25
2023-05-01T19:58:16.689Z,51.28
2023-05-01T20:03:19.845Z,51.44
2023-05-01T20:08:22.826Z,51.82
2023-05-01T20:13:25.757Z,52.00
2023-05-01T20:18:28.806Z,52.84
2023-05-01T20:23:31.751Z,53.41
2023-05-01T20:28:36.080Z,53.47
2023-05-01T20:33:39.142Z,53.76
2023-05-01T20:38:47.224Z,53.49
2023-05-01T20:43:50.181Z,53.60
2023-05-01T20:48:53.533Z,53.40
2023-05-01T20:53:56.628Z,53.87
2023-05-01T20:59:04.934Z,54.03
2023-05-01T21:04:08.202Z,54.28
2023-05-01T21:09:15.009Z,54.57
2023-05-01T21:14:17.994Z,54.79
2023-05-01T21:19:21.000Z,54.87
2023-05-01T21:24:25.790Z,54.96
2023-05-01T21:29:28.896Z,55.30
2023-05-01T21:34:31.939Z,55.36
2023-05-01T21:39:36.326Z,55.43
2023-05-01T21:44:39.381Z,55.57
2023-05-01T21:49:42.425Z,55.76
2023-05-01T21:54:45.488Z,55.64
2023-05-01T21:59:48.557Z,55.56
2023-05-01T22:04:54.772Z,55.89
2023-05-01T22:09:57.945Z,55.95
2023-05-01T22:15:01.396Z,56.09
2023-05-01T22:20:07.219Z,56.17
2023-05-01T22:25:11.643Z,56.15
2023-05-01T22:30:14.607Z,56.35
2023-05-01T22:35:17.654Z,56.30
2023-05-01T22:40:20.649Z,56.17
2023-05-01T22:45:26.412Z,56.17
2023-05-01T22:50:29.404Z,56.03
2023-05-01T22:55:33.101Z,56.56
2023-05-01T23:00:36.631Z,56.52
2023-05-01T23:05:39.559Z,57.03
2023-05-01T23:10:42.788Z,57.03
2023-05-01T23:15:47.623Z,57.21
2023-05-01T23:20:52.663Z,57.11
2023-05-01T23:25:55.824Z,57.38
2023-05-01T23:31:02.662Z,57.73
2023-05-01T23:36:12.852Z,58.01
2023-05-01T23:41:16.308Z,58.35
2023-05-01T23:46:19.454Z,58.19
2023-05-01T23:51:23.031Z,58.06
2023-05-01T23:56:26.147Z,58.13
